createdAt,value
2022-12-03T00:00:24.023Z,0.20
2022-12-03T00:02:24.132Z,0.20
2022-12-03T00:03:24.212Z,0.20
2022-12-03T00:04:23.972Z,0.30
2022-12-03T00:05:23.956Z,0.20
2022-12-03T00:06:23.946Z,0.30
2022-12-03T00:07:23.957Z,0.20
2022-12-03T00:08:23.921Z,0.20
2022-12-03T00:09:23.908Z,0.20
2022-12-03T00:10:23.896Z,0.20
2022-12-03T00:11:23.883Z,0.20
2022-12-03T00:12:23.872Z,0.20
2022-12-03T00:13:23.858Z,0.30
2022-12-03T00:14:23.846Z,0.20
2022-12-03T00:15:23.833Z,0.20
2022-12-03T00:16:23.918Z,0.20
2022-12-03T00:17:23.811Z,0.20
2022-12-03T00:18:23.797Z,0.30
2022-12-03T00:19:23.809Z,0.20
2022-12-03T00:20:23.772Z,0.20
2022-12-03T00:21:24.870Z,0.20
2022-12-03T00:22:23.748Z,0.20
2022-12-03T00:23:23.737Z,0.20
2022-12-03T00:24:23.725Z,0.20
2022-12-03T00:25:23.715Z,0.30
2022-12-03T00:26:23.701Z,0.20
2022-12-03T00:27:23.687Z,0.30
2022-12-03T00:28:23.675Z,0.20
2022-12-03T00:29:23.670Z,0.20
2022-12-03T00:30:23.650Z,0.20
2022-12-03T00:31:23.836Z,0.20
2022-12-03T00:32:23.627Z,0.20
2022-12-03T00:33:23.612Z,0.20
2022-12-03T00:34:23.604Z,0.30
2022-12-03T00:35:23.614Z,0.20
2022-12-03T00:36:23.577Z,0.20
2022-12-03T00:37:23.572Z,0.20
2022-12-03T00:38:23.562Z,0.30
2022-12-03T00:39:23.540Z,0.20
2022-12-03T00:40:23.543Z,0.20
2022-12-03T00:41:23.515Z,0.30
2022-12-03T00:42:23.504Z,0.20
2022-12-03T00:43:23.492Z,0.30
2022-12-03T00:44:23.480Z,0.20
2022-12-03T00:45:23.469Z,0.20
2022-12-03T00:46:23.535Z,0.20
2022-12-03T00:47:23.444Z,0.20
2022-12-03T00:48:23.433Z,0.30
2022-12-03T00:49:23.418Z,0.20
2022-12-03T00:50:23.407Z,0.30
2022-12-03T00:51:23.417Z,0.20
2022-12-03T00:52:23.383Z,0.30
2022-12-03T00:53:23.370Z,0.20
2022-12-03T00:54:26.988Z,0.20
2022-12-03T00:55:23.345Z,0.20
2022-12-03T00:56:23.334Z,0.20
2022-12-03T00:57:23.321Z,0.30
2022-12-03T00:58:23.311Z,0.20
2022-12-03T00:59:23.297Z,0.20
2022-12-03T01:00:23.287Z,0.20
2022-12-03T01:01:23.356Z,0.20
2022-12-03T01:02:23.431Z,0.20
2022-12-03T01:03:23.249Z,0.20
2022-12-03T01:04:23.310Z,0.30
2022-12-03T01:05:23.227Z,0.20
2022-12-03T01:06:23.213Z,0.30
2022-12-03T01:07:23.248Z,0.20
2022-12-03T01:08:23.189Z,0.20
2022-12-03T01:09:23.177Z,0.20
2022-12-03T01:10:23.163Z,0.20
2022-12-03T01:11:23.162Z,0.30
2022-12-03T01:12:23.140Z,0.20
2022-12-03T01:13:23.128Z,0.30
2022-12-03T01:14:23.116Z,0.20
2022-12-03T01:15:23.105Z,0.20
2022-12-03T01:16:23.140Z,0.20
2022-12-03T01:17:23.084Z,0.20
2022-12-03T01:18:23.067Z,0.20
2022-12-03T01:19:23.057Z,0.20
2022-12-03T01:20:23.042Z,0.30
2022-12-03T01:21:23.031Z,0.20
2022-12-03T01:22:23.019Z,0.20
2022-12-03T01:23:23.031Z,0.20
2022-12-03T01:24:22.997Z,0.20
2022-12-03T01:25:22.984Z,0.20
2022-12-03T01:26:22.972Z,0.20
2022-12-03T01:27:22.960Z,0.20
2022-12-03T01:28:22.947Z,0.20
2022-12-03T01:29:22.936Z,0.30
2022-12-03T01:30:22.924Z,0.20
2022-12-03T01:31:22.989Z,0.20
2022-12-03T01:32:22.900Z,0.20
2022-12-03T01:33:22.888Z,0.20
2022-12-03T01:34:22.876Z,0.30
2022-12-03T01:35:22.863Z,0.20
2022-12-03T01:36:22.854Z,0.30
2022-12-03T01:37:22.839Z,0.20
2022-12-03T01:38:22.826Z,0.20
2022-12-03T01:39:22.837Z,0.30
2022-12-03T01:40:22.802Z,0.20
2022-12-03T01:41:22.792Z,0.30
2022-12-03T01:42:22.777Z,0.20
2022-12-03T01:43:22.767Z,0.30
2022-12-03T01:44:22.757Z,0.20
2022-12-03T01:45:22.764Z,0.20
2022-12-03T01:46:22.835Z,0.20
2022-12-03T01:47:22.717Z,0.20
2022-12-03T01:48:22.705Z,0.20
2022-12-03T01:49:22.696Z,0.20
2022-12-03T01:50:22.683Z,0.30
2022-12-03T01:51:22.673Z,0.20
2022-12-03T01:52:22.657Z,0.20
2022-12-03T01:53:22.645Z,0.30
2022-12-03T01:54:22.638Z,0.20
2022-12-03T01:55:22.645Z,0.20
2022-12-03T01:56:22.610Z,0.20
2022-12-03T01:57:22.600Z,0.30
2022-12-03T01:58:22.583Z,0.20
2022-12-03T01:59:22.572Z,0.20
2022-12-03T02:00:22.564Z,0.20
2022-12-03T02:01:22.647Z,0.20
2022-12-03T02:02:22.535Z,0.30
2022-12-03T02:03:22.523Z,0.20
2022-12-03T02:04:22.593Z,0.30
2022-12-03T02:05:22.518Z,0.20
2022-12-03T02:06:22.487Z,0.20
2022-12-03T02:07:22.475Z,0.20
2022-12-03T02:08:22.462Z,0.20
2022-12-03T02:09:22.452Z,0.30
2022-12-03T02:10:22.439Z,0.20
2022-12-03T02:11:22.467Z,0.30
2022-12-03T02:12:22.413Z,0.20
2022-12-03T02:13:22.403Z,0.20
2022-12-03T02:14:22.389Z,0.30
2022-12-03T02:15:22.378Z,0.20
2022-12-03T02:16:22.496Z,0.30
2022-12-03T02:17:22.353Z,0.20
2022-12-03T02:18:22.340Z,0.20
2022-12-03T02:19:22.328Z,0.20
2022-12-03T02:20:22.316Z,0.20
2022-12-03T02:21:22.303Z,0.20
2022-12-03T02:22:22.292Z,0.20
2022-12-03T02:23:22.279Z,0.30
2022-12-03T02:24:22.265Z,0.20
2022-12-03T02:25:22.264Z,0.30
2022-12-03T02:26:22.243Z,0.20
2022-12-03T02:27:22.256Z,0.20
2022-12-03T02:28:22.217Z,0.20
2022-12-03T02:29:22.208Z,0.20
2022-12-03T02:30:22.200Z,0.20
2022-12-03T02:31:22.256Z,0.20
2022-12-03T02:32:22.168Z,0.20
2022-12-03T02:33:22.164Z,0.20
2022-12-03T02:34:22.145Z,0.20
2022-12-03T02:35:22.179Z,0.20
2022-12-03T02:36:22.119Z,0.20
2022-12-03T02:37:22.121Z,0.30
2022-12-03T02:38:22.094Z,0.20
2022-12-03T02:39:22.084Z,0.30
2022-12-03T02:40:22.072Z,0.20
2022-12-03T02:41:22.061Z,0.20
2022-12-03T02:42:22.059Z,0.20
2022-12-03T02:43:22.072Z,0.20
2022-12-03T02:44:22.054Z,0.30
2022-12-03T02:45:22.026Z,0.20
2022-12-03T02:46:22.073Z,0.30
2022-12-03T02:47:22.016Z,0.20
2022-12-03T02:48:21.994Z,0.20
2022-12-03T02:49:21.975Z,0.20
2022-12-03T02:50:21.970Z,0.20
2022-12-03T02:51:21.963Z,0.20
2022-12-03T02:52:21.924Z,0.20
2022-12-03T02:53:21.911Z,0.30
2022-12-03T02:54:21.901Z,0.30
2022-12-03T02:55:21.890Z,0.20
2022-12-03T02:56:21.872Z,0.30
2022-12-03T02:57:21.866Z,0.30
2022-12-03T02:58:21.844Z,0.20
2022-12-03T02:59:21.858Z,0.30
2022-12-03T03:00:21.819Z,0.20
2022-12-03T03:01:21.881Z,0.20
2022-12-03T03:02:21.874Z,0.30
2022-12-03T03:03:21.782Z,0.20
2022-12-03T03:04:21.769Z,0.30
2022-12-03T03:05:21.757Z,0.20
2022-12-03T03:06:21.748Z,0.20
2022-12-03T03:07:21.733Z,0.20
2022-12-03T03:08:21.718Z,0.20
2022-12-03T03:09:21.706Z,0.20
2022-12-03T03:10:21.692Z,0.20
2022-12-03T03:11:21.682Z,0.30
2022-12-03T03:12:21.668Z,0.20
2022-12-03T03:13:21.658Z,0.20
2022-12-03T03:14:21.644Z,0.30
2022-12-03T03:15:21.656Z,0.20
2022-12-03T03:16:21.695Z,0.30
2022-12-03T03:17:21.607Z,0.20
2022-12-03T03:18:21.591Z,0.30
2022-12-03T03:19:21.584Z,0.30
2022-12-03T03:20:21.569Z,0.20
2022-12-03T03:21:21.557Z,0.30
2022-12-03T03:22:21.544Z,0.20
2022-12-03T03:23:21.533Z,0.20
2022-12-03T03:24:21.519Z,0.20
2022-12-03T03:25:21.508Z,0.20
2022-12-03T03:26:21.495Z,0.30
2022-12-03T03:27:21.487Z,0.20
2022-12-03T03:28:21.472Z,0.30
2022-12-03T03:29:21.460Z,0.20
2022-12-03T03:30:21.446Z,0.20
2022-12-03T03:31:21.558Z,0.20
2022-12-03T03:32:21.422Z,0.20
2022-12-03T03:33:21.412Z,0.30
2022-12-03T03:34:21.397Z,0.20
2022-12-03T03:35:21.387Z,0.30
2022-12-03T03:36:21.373Z,0.20
2022-12-03T03:37:21.361Z,0.30
2022-12-03T03:38:21.348Z,0.20
2022-12-03T03:39:21.336Z,0.20
2022-12-03T03:40:21.323Z,0.30
2022-12-03T03:41:21.311Z,0.20
2022-12-03T03:42:21.296Z,0.20
2022-12-03T03:43:21.288Z,0.20
2022-12-03T03:44:21.275Z,0.20
2022-12-03T03:45:27.165Z,0.20
2022-12-03T03:46:21.320Z,0.20
2022-12-03T03:47:21.262Z,0.30
2022-12-03T03:48:21.226Z,0.20
2022-12-03T03:49:21.212Z,0.30
2022-12-03T03:50:21.198Z,0.30
2022-12-03T03:51:21.185Z,0.20
2022-12-03T03:52:21.175Z,0.20
2022-12-03T03:53:21.163Z,0.20
2022-12-03T03:54:21.147Z,0.30
2022-12-03T03:55:21.137Z,0.20
2022-12-03T03:56:21.125Z,0.20
2022-12-03T03:57:21.110Z,0.20
2022-12-03T03:58:21.098Z,0.20
2022-12-03T03:59:21.094Z,0.20
2022-12-03T04:00:21.088Z,0.20
2022-12-03T04:01:21.137Z,0.30
2022-12-03T04:03:21.060Z,0.30
2022-12-03T04:04:21.086Z,0.30
2022-12-03T04:05:21.015Z,0.20
2022-12-03T04:06:21.001Z,0.30
2022-12-03T04:07:20.987Z,0.20
2022-12-03T04:08:20.973Z,0.30
2022-12-03T04:09:20.962Z,0.20
2022-12-03T04:10:20.948Z,0.20
2022-12-03T04:11:20.940Z,0.30
2022-12-03T04:12:20.926Z,0.20
2022-12-03T04:13:20.919Z,0.30
2022-12-03T04:14:20.902Z,0.20
2022-12-03T04:15:20.889Z,0.30
2022-12-03T04:16:20.922Z,0.30
2022-12-03T04:17:20.868Z,0.20
2022-12-03T04:18:20.855Z,0.30
2022-12-03T04:19:20.866Z,0.20
2022-12-03T04:20:20.826Z,0.30
2022-12-03T04:21:20.817Z,0.20
2022-12-03T04:22:20.803Z,0.30
2022-12-03T04:23:22.312Z,0.20
2022-12-03T04:24:20.779Z,0.20
2022-12-03T04:25:20.771Z,0.20
2022-12-03T04:26:20.754Z,0.20
2022-12-03T04:27:20.744Z,0.30
2022-12-03T04:28:20.729Z,0.20
2022-12-03T04:29:20.718Z,0.30
2022-12-03T04:30:20.705Z,0.20
2022-12-03T04:31:20.771Z,0.20
2022-12-03T04:32:20.679Z,0.20
2022-12-03T04:33:20.669Z,0.20
2022-12-03T04:34:20.656Z,0.30
2022-12-03T04:35:20.737Z,0.20
2022-12-03T04:36:20.632Z,0.20
2022-12-03T04:37:20.621Z,0.30
2022-12-03T04:38:20.607Z,0.20
2022-12-03T04:39:20.596Z,0.30
2022-12-03T04:40:20.587Z,0.30
2022-12-03T04:41:20.574Z,0.30
2022-12-03T04:42:20.559Z,0.30
2022-12-03T04:43:20.549Z,0.20
2022-12-03T04:44:20.537Z,0.30
2022-12-03T04:45:20.526Z,0.20
2022-12-03T04:46:20.555Z,0.30
2022-12-03T04:47:20.502Z,0.20
2022-12-03T04:48:20.489Z,0.20
2022-12-03T04:49:20.476Z,0.20
2022-12-03T04:50:20.462Z,0.20
2022-12-03T04:51:20.476Z,0.20
2022-12-03T04:52:20.452Z,0.20
2022-12-03T04:53:20.431Z,0.30
2022-12-03T04:54:20.412Z,0.20
2022-12-03T04:55:20.403Z,0.20
2022-12-03T04:56:20.388Z,0.30
2022-12-03T04:57:20.381Z,0.20
2022-12-03T04:58:20.364Z,0.30
2022-12-03T04:59:20.352Z,0.30
2022-12-03T05:00:20.340Z,0.30
2022-12-03T05:01:20.375Z,0.30
2022-12-03T05:02:20.397Z,0.20
2022-12-03T05:03:20.305Z,0.30
2022-12-03T05:04:20.294Z,0.20
2022-12-03T05:05:20.279Z,0.30
2022-12-03T05:06:20.268Z,0.20
2022-12-03T05:07:20.279Z,0.20
2022-12-03T05:08:20.239Z,0.30
2022-12-03T05:09:20.230Z,0.20
2022-12-03T05:10:20.221Z,0.30
2022-12-03T05:11:20.204Z,0.20
2022-12-03T05:12:20.189Z,0.30
2022-12-03T05:13:20.177Z,0.20
2022-12-03T05:14:20.164Z,0.20
2022-12-03T05:15:20.152Z,0.20
2022-12-03T05:16:20.170Z,0.20
2022-12-03T05:17:20.127Z,0.30
2022-12-03T05:18:20.115Z,0.20
2022-12-03T05:19:20.102Z,0.20
2022-12-03T05:20:20.088Z,0.20
2022-12-03T05:21:20.077Z,0.20
2022-12-03T05:22:20.063Z,0.20
2022-12-03T05:23:20.074Z,0.20
2022-12-03T05:24:20.043Z,0.30
2022-12-03T05:25:20.037Z,0.20
2022-12-03T05:26:20.014Z,0.20
2022-12-03T05:27:23.694Z,0.20
2022-12-03T05:28:19.990Z,0.20
2022-12-03T05:29:19.974Z,0.30
2022-12-03T05:30:19.964Z,0.20
2022-12-03T05:31:20.060Z,0.30
2022-12-03T05:32:19.946Z,0.30
2022-12-03T05:33:19.927Z,0.20
2022-12-03T05:34:19.915Z,0.20
2022-12-03T05:35:19.900Z,0.20
2022-12-03T05:36:19.890Z,0.30
2022-12-03T05:37:19.875Z,0.20
2022-12-03T05:38:19.864Z,0.20
2022-12-03T05:39:19.875Z,0.20
2022-12-03T05:40:19.840Z,0.20
2022-12-03T05:41:19.825Z,0.30
2022-12-03T05:42:19.814Z,0.20
2022-12-03T05:43:19.802Z,0.20
2022-12-03T05:44:20.783Z,0.20
2022-12-03T05:45:19.777Z,0.20
2022-12-03T05:46:19.851Z,0.20
2022-12-03T05:47:19.749Z,0.20
2022-12-03T05:48:19.741Z,0.30
2022-12-03T05:49:19.727Z,0.20
2022-12-03T05:50:19.714Z,0.30
2022-12-03T05:51:19.701Z,0.20
2022-12-03T05:52:19.690Z,0.20
2022-12-03T05:53:19.677Z,0.30
2022-12-03T05:54:19.666Z,0.20
2022-12-03T05:55:19.679Z,0.30
2022-12-03T05:56:19.642Z,0.20
2022-12-03T05:57:19.630Z,0.30
2022-12-03T05:58:19.617Z,0.20
2022-12-03T05:59:19.608Z,0.20
2022-12-03T06:00:19.593Z,0.20
2022-12-03T06:01:19.577Z,0.20
2022-12-03T06:02:19.704Z,0.20
2022-12-03T06:03:19.900Z,0.20
2022-12-03T06:04:19.541Z,0.20
2022-12-03T06:05:19.536Z,0.30
2022-12-03T06:06:19.515Z,0.20
2022-12-03T06:07:19.501Z,0.20
2022-12-03T06:08:19.543Z,0.20
2022-12-03T06:09:19.475Z,0.30
2022-12-03T06:10:19.465Z,0.20
2022-12-03T06:11:19.476Z,0.30
2022-12-03T06:12:19.442Z,0.30
2022-12-03T06:13:19.425Z,0.20
2022-12-03T06:14:19.416Z,0.20
2022-12-03T06:15:19.402Z,0.20
2022-12-03T06:16:19.448Z,0.30
2022-12-03T06:17:19.376Z,0.20
2022-12-03T06:18:19.376Z,0.20
2022-12-03T06:19:19.352Z,0.20
2022-12-03T06:20:19.339Z,0.20
2022-12-03T06:21:19.325Z,0.20
2022-12-03T06:22:19.314Z,0.20
2022-12-03T06:23:19.302Z,0.30
2022-12-03T06:24:19.289Z,0.20
2022-12-03T06:25:19.277Z,0.20
2022-12-03T06:26:19.265Z,0.20
2022-12-03T06:27:19.275Z,0.20
2022-12-03T06:28:19.239Z,0.30
2022-12-03T06:29:19.226Z,0.20
2022-12-03T06:30:19.216Z,0.20
2022-12-03T06:31:19.253Z,0.20
2022-12-03T06:32:19.191Z,0.20
2022-12-03T06:33:19.176Z,0.20
2022-12-03T06:34:19.167Z,0.20
2022-12-03T06:35:19.151Z,0.20
2022-12-03T06:36:22.984Z,0.20
2022-12-03T06:37:19.127Z,0.30
2022-12-03T06:38:19.116Z,0.20
2022-12-03T06:39:19.103Z,0.20
2022-12-03T06:40:19.093Z,0.20
2022-12-03T06:41:19.079Z,0.20
2022-12-03T06:42:19.066Z,0.20
2022-12-03T06:43:19.077Z,0.20
2022-12-03T06:44:19.042Z,0.30
2022-12-03T06:45:19.026Z,0.20
2022-12-03T06:46:19.098Z,0.20
2022-12-03T06:47:19.004Z,0.20
2022-12-03T06:48:18.992Z,0.20
2022-12-03T06:49:18.976Z,0.30
2022-12-03T06:50:18.968Z,0.20
2022-12-03T06:51:18.951Z,0.20
2022-12-03T06:52:18.940Z,0.20
2022-12-03T06:53:18.927Z,0.20
2022-12-03T06:54:18.914Z,0.20
2022-12-03T06:55:18.901Z,0.20
2022-12-03T06:56:22.357Z,0.30
2022-12-03T06:57:18.882Z,0.30
2022-12-03T06:58:18.864Z,0.20
2022-12-03T06:59:18.877Z,0.30
2022-12-03T07:00:18.839Z,0.20
2022-12-03T07:01:18.944Z,0.20
2022-12-03T07:02:18.813Z,0.20
2022-12-03T07:03:18.841Z,0.20
2022-12-03T07:04:18.789Z,0.20
2022-12-03T07:05:18.777Z,0.20
2022-12-03T07:06:18.768Z,0.20
2022-12-03T07:07:18.750Z,0.20
2022-12-03T07:08:18.835Z,0.20
2022-12-03T07:09:18.723Z,0.20
2022-12-03T07:10:18.714Z,0.20
2022-12-03T07:11:18.699Z,0.30
2022-12-03T07:12:18.687Z,0.20
2022-12-03T07:13:18.678Z,0.20
2022-12-03T07:14:18.663Z,0.20
2022-12-03T07:15:18.681Z,0.20
2022-12-03T07:16:18.708Z,0.20
2022-12-03T07:17:18.629Z,0.20
2022-12-03T07:18:18.612Z,0.30
2022-12-03T07:19:18.601Z,0.20
2022-12-03T07:20:18.588Z,0.30
2022-12-03T07:21:18.575Z,0.20
2022-12-03T07:22:18.562Z,0.30
2022-12-03T07:23:18.548Z,0.20
2022-12-03T07:24:18.537Z,0.20
2022-12-03T07:25:23.077Z,0.30
2022-12-03T07:26:18.511Z,0.20
2022-12-03T07:27:18.497Z,0.30
2022-12-03T07:28:18.498Z,0.20
2022-12-03T07:29:18.471Z,0.20
2022-12-03T07:30:18.490Z,0.20
2022-12-03T07:31:18.584Z,0.20
2022-12-03T07:32:18.435Z,0.20
2022-12-03T07:33:18.422Z,0.20
2022-12-03T07:34:18.414Z,0.30
2022-12-03T07:35:18.398Z,74.09
2022-12-03T07:36:18.386Z,0.60
2022-12-03T07:37:22.858Z,0.70
2022-12-03T07:38:18.360Z,0.60
2022-12-03T07:39:18.346Z,0.70
2022-12-03T07:40:18.334Z,0.70
2022-12-03T07:41:18.320Z,0.70
2022-12-03T07:42:18.309Z,0.60
2022-12-03T07:43:18.295Z,0.50
2022-12-03T07:44:18.283Z,0.60
2022-12-03T07:45:18.270Z,0.60
2022-12-03T07:46:18.359Z,55.70
2022-12-03T07:47:18.267Z,0.70
2022-12-03T07:48:18.232Z,0.70
2022-12-03T07:49:18.219Z,0.60
2022-12-03T07:50:18.207Z,0.60
2022-12-03T07:51:18.193Z,0.70
2022-12-03T07:52:18.181Z,0.60
2022-12-03T07:53:18.167Z,0.70
2022-12-03T07:54:18.160Z,0.60
2022-12-03T07:55:18.142Z,0.60
2022-12-03T07:56:18.135Z,21.70
2022-12-03T07:57:18.115Z,3.09
2022-12-03T07:58:18.105Z,0.70
2022-12-03T07:59:18.094Z,0.50
2022-12-03T08:00:18.083Z,0.60
2022-12-03T08:01:18.242Z,0.60
2022-12-03T08:02:21.347Z,0.60
2022-12-03T08:03:18.065Z,0.60
2022-12-03T08:04:18.031Z,0.40
2022-12-03T08:05:18.016Z,0.60
2022-12-03T08:06:18.006Z,0.60
2022-12-03T08:07:17.990Z,73.90
2022-12-03T08:08:18.113Z,0.60
2022-12-03T08:09:17.968Z,0.60
2022-12-03T08:10:18.056Z,0.60
2022-12-03T08:11:17.942Z,0.50
2022-12-03T08:12:17.930Z,0.60
2022-12-03T08:13:17.918Z,0.50
2022-12-03T08:14:17.910Z,0.70
2022-12-03T08:15:17.893Z,0.50
2022-12-03T08:16:18.028Z,0.50
2022-12-03T08:17:17.913Z,0.60
2022-12-03T08:18:17.861Z,42.59
2022-12-03T08:19:17.867Z,0.60
2022-12-03T08:20:17.833Z,0.50
2022-12-03T08:21:17.820Z,0.70
2022-12-03T08:22:17.813Z,0.60
2022-12-03T08:23:17.799Z,0.50
2022-12-03T08:24:17.803Z,0.60
2022-12-03T08:25:17.778Z,0.50
2022-12-03T08:26:17.774Z,0.60
2022-12-03T08:27:17.747Z,0.50
2022-12-03T08:28:17.738Z,24.89
2022-12-03T08:29:17.723Z,1.79
2022-12-03T08:30:17.716Z,0.40
2022-12-03T08:31:17.736Z,0.60
2022-12-03T08:32:17.763Z,0.40
2022-12-03T08:33:17.675Z,0.70
2022-12-03T08:34:17.668Z,0.50
2022-12-03T08:35:17.681Z,0.60
2022-12-03T08:36:17.640Z,0.50
2022-12-03T08:37:17.632Z,0.50
2022-12-03T08:38:17.617Z,0.60
2022-12-03T08:39:17.619Z,69.69
2022-12-03T08:40:17.592Z,0.60
2022-12-03T08:41:17.578Z,0.60
2022-12-03T08:42:17.566Z,0.50
2022-12-03T08:43:17.554Z,0.50
2022-12-03T08:44:17.544Z,0.50
2022-12-03T08:45:17.532Z,0.50
2022-12-03T08:46:17.648Z,0.50
2022-12-03T08:47:17.508Z,0.70
2022-12-03T08:48:17.499Z,0.60
2022-12-03T08:49:17.481Z,0.50
2022-12-03T08:50:17.473Z,39.29
2022-12-03T08:51:17.480Z,0.40
2022-12-03T08:52:17.452Z,0.60
2022-12-03T08:53:17.432Z,0.50
2022-12-03T08:54:17.421Z,0.60
2022-12-03T08:55:17.408Z,0.60
2022-12-03T08:56:17.397Z,0.60
2022-12-03T08:57:17.388Z,0.50
2022-12-03T08:58:17.373Z,0.50
2022-12-03T08:59:17.361Z,0.60
2022-12-03T09:00:17.349Z,22.29
2022-12-03T09:01:17.424Z,70.19
2022-12-03T09:02:17.329Z,70.59
2022-12-03T09:03:17.314Z,70.59
2022-12-03T09:04:17.349Z,71.09
2022-12-03T09:05:17.290Z,71.19
2022-12-03T09:06:17.281Z,71.90
2022-12-03T09:07:17.289Z,71.00
2022-12-03T09:08:17.376Z,70.69
2022-12-03T09:09:17.238Z,70.09
2022-12-03T09:10:17.236Z,71.50
2022-12-03T09:11:17.215Z,72.59
2022-12-03T09:12:17.204Z,69.69
2022-12-03T09:13:17.192Z,69.90
2022-12-03T09:14:18.912Z,69.00
2022-12-03T09:15:17.167Z,70.19
2022-12-03T09:16:17.221Z,69.40
2022-12-03T09:17:17.143Z,71.40
2022-12-03T09:18:17.132Z,70.00
2022-12-03T09:19:17.118Z,71.59
2022-12-03T09:20:17.107Z,70.69
2022-12-03T09:21:17.095Z,71.69
2022-12-03T09:22:17.086Z,70.90
2022-12-03T09:23:17.091Z,71.80
2022-12-03T09:24:17.058Z,71.30
2022-12-03T09:25:17.052Z,71.40
2022-12-03T09:26:17.034Z,72.69
2022-12-03T09:27:17.021Z,72.09
2022-12-03T09:28:17.011Z,72.19
2022-12-03T09:29:16.996Z,72.19
2022-12-03T09:30:16.988Z,71.80
2022-12-03T09:31:17.033Z,71.00
2022-12-03T09:32:18.681Z,71.40
2022-12-03T09:33:16.952Z,71.19
2022-12-03T09:34:16.940Z,70.69
2022-12-03T09:35:16.925Z,72.30
2022-12-03T09:36:16.914Z,69.90
2022-12-03T09:37:16.905Z,69.80
2022-12-03T09:38:16.888Z,70.30
2022-12-03T09:39:16.899Z,69.90
2022-12-03T09:40:16.860Z,69.69
2022-12-03T09:41:16.852Z,69.19
2022-12-03T09:42:16.836Z,71.80
2022-12-03T09:43:16.824Z,69.90
2022-12-03T09:44:18.167Z,70.09
2022-12-03T09:45:16.801Z,70.00
2022-12-03T09:46:16.865Z,69.69
2022-12-03T09:47:16.776Z,69.90
2022-12-03T09:48:16.766Z,68.69
2022-12-03T09:49:16.752Z,68.09
2022-12-03T09:50:16.745Z,69.50
2022-12-03T09:51:16.727Z,68.30
2022-12-03T09:52:16.715Z,67.80
2022-12-03T09:53:16.703Z,67.80
2022-12-03T09:54:16.689Z,68.40
2022-12-03T09:55:16.704Z,66.80
2022-12-03T09:56:16.665Z,65.90
2022-12-03T09:57:16.650Z,63.90
2022-12-03T09:58:16.636Z,65.50
2022-12-03T09:59:16.626Z,65.50
2022-12-03T10:00:16.613Z,66.19
2022-12-03T10:01:16.648Z,65.90
2022-12-03T10:02:16.586Z,67.19
2022-12-03T10:03:16.575Z,68.09
2022-12-03T10:04:16.658Z,68.50
2022-12-03T10:05:16.550Z,67.19
2022-12-03T10:06:16.543Z,66.90
2022-12-03T10:07:16.523Z,64.19
2022-12-03T10:08:16.561Z,62.09
2022-12-03T10:09:16.496Z,62.20
2022-12-03T10:10:16.486Z,63.00
2022-12-03T10:11:16.497Z,64.00
2022-12-03T10:12:16.457Z,64.40
2022-12-03T10:13:19.779Z,67.30
2022-12-03T10:14:16.429Z,66.30
2022-12-03T10:15:16.418Z,66.50
2022-12-03T10:16:16.472Z,68.80
2022-12-03T10:17:16.441Z,66.19
2022-12-03T10:18:16.378Z,66.50
2022-12-03T10:19:16.366Z,67.40
2022-12-03T10:20:16.352Z,66.00
2022-12-03T10:21:16.342Z,66.00
2022-12-03T10:22:16.328Z,65.19
2022-12-03T10:23:16.318Z,64.09
2022-12-03T10:24:16.301Z,64.09
2022-12-03T10:25:16.291Z,63.50
2022-12-03T10:26:16.277Z,62.59
2022-12-03T10:27:16.291Z,62.40
2022-12-03T10:28:16.259Z,61.00
2022-12-03T10:29:16.243Z,60.20
2022-12-03T10:30:16.227Z,60.00
2022-12-03T10:31:16.299Z,60.20
2022-12-03T10:32:16.201Z,60.20
2022-12-03T10:33:19.056Z,61.00
2022-12-03T10:34:16.177Z,59.29
2022-12-03T10:35:16.166Z,59.59
2022-12-03T10:36:16.150Z,59.29
2022-12-03T10:37:16.143Z,59.59
2022-12-03T10:38:16.126Z,59.00
2022-12-03T10:39:16.112Z,58.59
2022-12-03T10:40:16.097Z,58.00
2022-12-03T10:41:16.086Z,56.59
2022-12-03T10:42:16.082Z,55.50
2022-12-03T10:43:16.096Z,54.90
2022-12-03T10:44:16.046Z,55.59
2022-12-03T10:45:16.040Z,55.09
2022-12-03T10:46:16.156Z,53.70
2022-12-03T10:47:16.142Z,52.50
2022-12-03T10:48:15.993Z,52.79
2022-12-03T10:49:15.981Z,53.40
2022-12-03T10:50:15.967Z,52.29
2022-12-03T10:51:15.956Z,53.20
2022-12-03T10:52:18.763Z,52.29
2022-12-03T10:53:15.927Z,54.29
2022-12-03T10:54:15.915Z,57.20
2022-12-03T10:55:15.913Z,58.40
2022-12-03T10:56:15.890Z,57.29
2022-12-03T10:57:15.877Z,52.59
2022-12-03T10:58:15.863Z,52.29
2022-12-03T10:59:15.874Z,51.90
2022-12-03T11:00:15.849Z,52.29
2022-12-03T11:01:15.876Z,53.40
2022-12-03T11:02:15.812Z,52.29
2022-12-03T11:03:15.869Z,53.59
2022-12-03T11:04:15.783Z,54.90
2022-12-03T11:05:15.771Z,54.29
2022-12-03T11:06:15.758Z,56.90
2022-12-03T11:07:15.746Z,57.00
2022-12-03T11:08:15.762Z,58.09
2022-12-03T11:09:15.722Z,56.09
2022-12-03T11:10:15.709Z,55.70
2022-12-03T11:11:15.696Z,54.79
2022-12-03T11:12:15.678Z,53.29
2022-12-03T11:13:15.666Z,53.50
2022-12-03T11:14:19.739Z,55.09
2022-12-03T11:15:15.666Z,55.29
2022-12-03T11:16:15.708Z,55.40
2022-12-03T11:17:15.616Z,54.40
2022-12-03T11:18:15.601Z,55.00
2022-12-03T11:19:15.939Z,56.29
2022-12-03T11:20:20.960Z,57.50
2022-12-03T11:21:15.564Z,57.00
2022-12-03T11:22:15.550Z,55.09
2022-12-03T11:23:15.538Z,54.00
2022-12-03T11:24:15.525Z,55.09
2022-12-03T11:25:15.513Z,55.40
2022-12-03T11:26:18.934Z,55.09
2022-12-03T11:27:15.491Z,55.50
2022-12-03T11:28:15.472Z,55.20
2022-12-03T11:29:15.460Z,54.90
2022-12-03T11:30:15.473Z,56.00
2022-12-03T11:31:15.495Z,56.79
2022-12-03T11:32:15.421Z,55.59
2022-12-03T11:33:15.409Z,54.59
2022-12-03T11:34:15.398Z,53.00
2022-12-03T11:35:15.383Z,52.70
2022-12-03T11:36:15.398Z,52.79
2022-12-03T11:37:15.363Z,53.40
2022-12-03T11:38:15.341Z,54.20
2022-12-03T11:39:15.329Z,55.09
2022-12-03T11:40:15.355Z,54.90
2022-12-03T11:41:15.317Z,55.29
2022-12-03T11:42:15.288Z,56.29
2022-12-03T11:43:15.276Z,55.70
2022-12-03T11:44:15.264Z,56.90
2022-12-03T11:45:15.250Z,55.40
2022-12-03T11:46:15.350Z,55.79
2022-12-03T11:47:15.248Z,55.79
2022-12-03T11:48:15.207Z,54.20
2022-12-03T11:49:15.197Z,52.50
2022-12-03T11:50:15.243Z,53.09
2022-12-03T11:51:15.172Z,52.79
2022-12-03T11:52:15.163Z,53.29
2022-12-03T11:53:15.143Z,54.40
2022-12-03T11:54:15.129Z,54.09
2022-12-03T11:55:15.123Z,55.50
2022-12-03T11:56:15.101Z,57.09
2022-12-03T11:57:15.091Z,57.29
2022-12-03T11:58:15.080Z,56.00
2022-12-03T11:59:15.065Z,55.00
2022-12-03T12:00:15.099Z,56.00
2022-12-03T12:01:15.040Z,55.50
2022-12-03T12:02:15.025Z,56.50
2022-12-03T12:04:15.045Z,54.29
2022-12-03T12:05:14.985Z,54.40
2022-12-03T12:06:14.978Z,54.09
2022-12-03T12:07:14.963Z,53.50
2022-12-03T12:08:14.994Z,54.40
2022-12-03T12:09:14.934Z,55.50
2022-12-03T12:10:14.940Z,55.40
2022-12-03T12:11:14.908Z,55.40
2022-12-03T12:12:14.894Z,52.79
2022-12-03T12:13:14.881Z,53.29
2022-12-03T12:14:14.867Z,51.79
2022-12-03T12:15:14.865Z,52.70
2022-12-03T12:16:14.898Z,53.90
2022-12-03T12:17:14.835Z,55.20
2022-12-03T12:18:14.813Z,56.50
2022-12-03T12:19:14.825Z,55.29
2022-12-03T12:20:14.861Z,55.20
2022-12-03T12:21:14.775Z,56.20
2022-12-03T12:22:14.761Z,56.59
2022-12-03T12:23:14.749Z,56.59
2022-12-03T12:24:14.734Z,57.29
2022-12-03T12:25:14.721Z,59.40
2022-12-03T12:26:14.708Z,59.09
2022-12-03T12:27:14.697Z,58.90
2022-12-03T12:28:14.680Z,61.40
2022-12-03T12:29:14.668Z,60.40
2022-12-03T12:30:14.765Z,59.59
2022-12-03T12:31:14.732Z,58.09
2022-12-03T12:32:14.627Z,57.40
2022-12-03T12:33:14.621Z,57.20
2022-12-03T12:34:14.600Z,57.59
2022-12-03T12:35:14.614Z,58.20
2022-12-03T12:36:14.573Z,57.70
2022-12-03T12:37:14.562Z,58.00
2022-12-03T12:38:14.546Z,59.59
2022-12-03T12:39:14.540Z,60.59
2022-12-03T12:40:14.603Z,59.90
2022-12-03T12:41:14.511Z,59.70
2022-12-03T12:42:14.497Z,60.09
2022-12-03T12:43:20.325Z,58.79
2022-12-03T12:44:14.487Z,58.59
2022-12-03T12:45:14.465Z,58.70
2022-12-03T12:46:46.173Z,59.70
2022-12-03T12:47:14.496Z,61.79
2022-12-03T12:48:14.418Z,61.09
2022-12-03T12:49:14.404Z,62.70
2022-12-03T12:50:14.391Z,61.29
2022-12-03T12:51:14.408Z,62.29
2022-12-03T12:52:14.368Z,62.50
2022-12-03T12:53:14.360Z,61.20
2022-12-03T12:54:14.348Z,64.00
2022-12-03T12:55:14.330Z,64.09
2022-12-03T12:56:14.316Z,64.19
2022-12-03T12:57:14.303Z,63.70
2022-12-03T12:58:14.290Z,64.40
2022-12-03T12:59:14.278Z,64.50
2022-12-03T13:00:14.263Z,63.20
2022-12-03T13:01:14.338Z,62.40
2022-12-03T13:02:14.281Z,60.29
2022-12-03T13:03:14.223Z,58.59
2022-12-03T13:04:14.209Z,58.70
2022-12-03T13:05:14.199Z,60.70
2022-12-03T13:06:14.185Z,62.90
2022-12-03T13:07:14.198Z,63.29
2022-12-03T13:08:14.297Z,63.70
2022-12-03T13:09:14.147Z,61.50
2022-12-03T13:10:14.130Z,59.29
2022-12-03T13:11:14.125Z,59.29
2022-12-03T13:12:14.106Z,57.40